sensor_id;sensor_type;location;lat;lon;timestamp;P1;durP1;ratioP1;P2;durP2;ratioP2
71351;SDS011;59159;51.652;4.864;2023-09-18T00:02:19;9.40;;;4.57;;
71351;SDS011;59159;51.652;4.864;2023-09-18T00:04:45;7.57;;;4.22;;
71351;SDS011;59159;51.652;4.864;2023-09-18T00:07:11;8.05;;;4.15;;
71351;SDS011;59159;51.652;4.864;2023-09-18T00:09:37;9.00;;;4.57;;
71351;SDS011;59159;51.652;4.864;2023-09-18T00:12:03;8.68;;;5.00;;
71351;SDS011;59159;51.652;4.864;2023-09-18T00:14:29;8.02;;;4.47;;
71351;SDS011;59159;51.652;4.864;2023-09-18T00:16:55;9.33;;;4.47;;
71351;SDS011;59159;51.652;4.864;2023-09-18T00:19:22;9.32;;;5.03;;
71351;SDS011;59159;51.652;4.864;2023-09-18T00:21:49;9.18;;;5.20;;
71351;SDS011;59159;51.652;4.864;2023-09-18T00:24:15;8.50;;;4.35;;
71351;SDS011;59159;51.652;4.864;2023-09-18T00:26:42;8.77;;;4.67;;
71351;SDS011;59159;51.652;4.864;2023-09-18T00:29:08;8.43;;;4.75;;
71351;SDS011;59159;51.652;4.864;2023-09-18T00:31:34;8.68;;;4.30;;
71351;SDS011;59159;51.652;4.864;2023-09-18T00:34:00;7.60;;;4.50;;
71351;SDS011;59159;51.652;4.864;2023-09-18T00:36:26;8.80;;;4.72;;
71351;SDS011;59159;51.652;4.864;2023-09-18T00:38:52;9.15;;;4.68;;
71351;SDS011;59159;51.652;4.864;2023-09-18T00:41:18;9.07;;;4.43;;
71351;SDS011;59159;51.652;4.864;2023-09-18T00:43:44;8.55;;;4.50;;
71351;SDS011;59159;51.652;4.864;2023-09-18T00:46:09;7.85;;;4.38;;
71351;SDS011;59159;51.652;4.864;2023-09-18T00:48:35;9.15;;;4.90;;
71351;SDS011;59159;51.652;4.864;2023-09-18T00:51:02;8.87;;;4.53;;
71351;SDS011;59159;51.652;4.864;2023-09-18T00:53:28;8.63;;;4.60;;
71351;SDS011;59159;51.652;4.864;2023-09-18T00:55:55;7.57;;;3.97;;
71351;SDS011;59159;51.652;4.864;2023-09-18T00:58:22;8.53;;;4.27;;
71351;SDS011;59159;51.652;4.864;2023-09-18T01:00:48;7.95;;;4.15;;
71351;SDS011;59159;51.652;4.864;2023-09-18T01:03:16;9.77;;;4.43;;
71351;SDS011;59159;51.652;4.864;2023-09-18T01:05:43;8.30;;;4.80;;
71351;SDS011;59159;51.652;4.864;2023-09-18T01:08:12;7.63;;;4.15;;
71351;SDS011;59159;51.652;4.864;2023-09-18T01:13:29;8.07;;;4.25;;
71351;SDS011;59159;51.652;4.864;2023-09-18T01:15:58;7.60;;;3.97;;
71351;SDS011;59159;51.652;4.864;2023-09-18T01:18:27;8.15;;;4.25;;
71351;SDS011;59159;51.652;4.864;2023-09-18T01:20:53;7.40;;;4.07;;
71351;SDS011;59159;51.652;4.864;2023-09-18T01:23:19;10.80;;;4.40;;
71351;SDS011;59159;51.652;4.864;2023-09-18T01:25:45;9.40;;;4.30;;
71351;SDS011;59159;51.652;4.864;2023-09-18T01:28:11;8.77;;;4.05;;
71351;SDS011;59159;51.652;4.864;2023-09-18T01:30:37;7.93;;;3.60;;
71351;SDS011;59159;51.652;4.864;2023-09-18T01:33:03;6.72;;;3.53;;
71351;SDS011;59159;51.652;4.864;2023-09-18T01:35:29;7.03;;;3.65;;
71351;SDS011;59159;51.652;4.864;2023-09-18T01:37:56;8.35;;;4.47;;
71351;SDS011;59159;51.652;4.864;2023-09-18T01:40:23;8.30;;;4.37;;
71351;SDS011;59159;51.652;4.864;2023-09-18T01:42:50;8.40;;;4.38;;
71351;SDS011;59159;51.652;4.864;2023-09-18T01:45:16;8.27;;;4.10;;
71351;SDS011;59159;51.652;4.864;2023-09-18T01:47:42;7.43;;;3.90;;
71351;SDS011;59159;51.652;4.864;2023-09-18T01:50:08;8.52;;;4.28;;
71351;SDS011;59159;51.652;4.864;2023-09-18T01:52:34;7.22;;;3.53;;
71351;SDS011;59159;51.652;4.864;2023-09-18T01:55:01;7.90;;;3.80;;
71351;SDS011;59159;51.652;4.864;2023-09-18T01:57:29;7.80;;;3.88;;
71351;SDS011;59159;51.652;4.864;2023-09-18T01:59:55;10.48;;;4.68;;
71351;SDS011;59159;51.652;4.864;2023-09-18T02:02:21;7.82;;;4.35;;
71351;SDS011;59159;51.652;4.864;2023-09-18T02:04:47;7.57;;;3.70;;
71351;SDS011;59159;51.652;4.864;2023-09-18T02:07:13;9.35;;;3.90;;
71351;SDS011;59159;51.652;4.864;2023-09-18T02:09:39;7.85;;;3.90;;
71351;SDS011;59159;51.652;4.864;2023-09-18T02:12:05;7.77;;;4.37;;
71351;SDS011;59159;51.652;4.864;2023-09-18T02:14:31;7.82;;;4.07;;
71351;SDS011;59159;51.652;4.864;2023-09-18T02:16:58;7.57;;;3.78;;
71351;SDS011;59159;51.652;4.864;2023-09-18T02:19:25;7.57;;;3.80;;
71351;SDS011;59159;51.652;4.864;2023-09-18T02:21:51;8.65;;;4.47;;
71351;SDS011;59159;51.652;4.864;2023-09-18T02:24:17;8.85;;;4.47;;
71351;SDS011;59159;51.652;4.864;2023-09-18T02:26:44;7.95;;;3.80;;
71351;SDS011;59159;51.652;4.864;2023-09-18T02:29:10;7.00;;;3.93;;
71351;SDS011;59159;51.652;4.864;2023-09-18T02:31:38;8.48;;;4.40;;
71351;SDS011;59159;51.652;4.864;2023-09-18T02:34:05;7.20;;;3.90;;
71351;SDS011;59159;51.652;4.864;2023-09-18T02:36:32;8.40;;;3.70;;
71351;SDS011;59159;51.652;4.864;2023-09-18T02:38:58;8.45;;;3.90;;
71351;SDS011;59159;51.652;4.864;2023-09-18T02:41:24;7.63;;;3.67;;
71351;SDS011;59159;51.652;4.864;2023-09-18T02:43:50;7.63;;;3.83;;
71351;SDS011;59159;51.652;4.864;2023-09-18T02:46:16;6.70;;;3.60;;
71351;SDS011;59159;51.652;4.864;2023-09-18T02:48:42;7.70;;;3.72;;
71351;SDS011;59159;51.652;4.864;2023-09-18T02:51:08;9.43;;;4.30;;
71351;SDS011;59159;51.652;4.864;2023-09-18T02:53:34;7.47;;;3.80;;
71351;SDS011;59159;51.652;4.864;2023-09-18T02:56:00;8.20;;;4.13;;
71351;SDS011;59159;51.652;4.864;2023-09-18T02:58:26;8.93;;;3.92;;
71351;SDS011;59159;51.652;4.864;2023-09-18T03:00:55;7.57;;;3.83;;
71351;SDS011;59159;51.652;4.864;2023-09-18T03:03:25;7.55;;;3.42;;
71351;SDS011;59159;51.652;4.864;2023-09-18T03:05:51;8.90;;;4.20;;
71351;SDS011;59159;51.652;4.864;2023-09-18T03:08:17;8.67;;;3.83;;
71351;SDS011;59159;51.652;4.864;2023-09-18T03:10:43;7.40;;;3.72;;
71351;SDS011;59159;51.652;4.864;2023-09-18T03:13:10;7.68;;;3.85;;
71351;SDS011;59159;51.652;4.864;2023-09-18T03:15:36;7.75;;;3.53;;
71351;SDS011;59159;51.652;4.864;2023-09-18T03:18:02;8.00;;;3.80;;
71351;SDS011;59159;51.652;4.864;2023-09-18T03:20:29;8.10;;;3.80;;
71351;SDS011;59159;51.652;4.864;2023-09-18T03:23:00;7.20;;;3.67;;
71351;SDS011;59159;51.652;4.864;2023-09-18T03:25:26;7.47;;;3.73;;
71351;SDS011;59159;51.652;4.864;2023-09-18T03:27:54;7.75;;;3.88;;
71351;SDS011;59159;51.652;4.864;2023-09-18T03:30:21;9.52;;;3.40;;
71351;SDS011;59159;51.652;4.864;2023-09-18T03:32:48;7.93;;;3.50;;
71351;SDS011;59159;51.652;4.864;2023-09-18T03:35:14;7.13;;;3.50;;
71351;SDS011;59159;51.652;4.864;2023-09-18T03:37:43;7.20;;;3.80;;
71351;SDS011;59159;51.652;4.864;2023-09-18T03:40:09;7.70;;;3.25;;
71351;SDS011;59159;51.652;4.864;2023-09-18T03:42:35;8.13;;;3.53;;
71351;SDS011;59159;51.652;4.864;2023-09-18T03:45:02;6.95;;;3.47;;
71351;SDS011;59159;51.652;4.864;2023-09-18T03:47:28;7.97;;;3.80;;
71351;SDS011;59159;51.652;4.864;2023-09-18T03:49:54;7.13;;;3.03;;
71351;SDS011;59159;51.652;4.864;2023-09-18T03:52:20;7.88;;;2.67;;
71351;SDS011;59159;51.652;4.864;2023-09-18T03:54:46;7.28;;;2.35;;
71351;SDS011;59159;51.652;4.864;2023-09-18T03:57:12;7.23;;;2.53;;
71351;SDS011;59159;51.652;4.864;2023-09-18T03:59:38;6.75;;;2.88;;
71351;SDS011;59159;51.652;4.864;2023-09-18T04:02:04;6.75;;;2.83;;
71351;SDS011;59159;51.652;4.864;2023-09-18T04:04:30;7.53;;;2.70;;
71351;SDS011;59159;51.652;4.864;2023-09-18T04:06:57;8.30;;;2.27;;
71351;SDS011;59159;51.652;4.864;2023-09-18T04:09:23;7.55;;;2.60;;
71351;SDS011;59159;51.652;4.864;2023-09-18T04:11:49;8.88;;;3.42;;
71351;SDS011;59159;51.652;4.864;2023-09-18T04:14:15;7.70;;;2.40;;
71351;SDS011;59159;51.652;4.864;2023-09-18T04:16:41;6.82;;;2.45;;
71351;SDS011;59159;51.652;4.864;2023-09-18T04:19:08;9.30;;;2.40;;
71351;SDS011;59159;51.652;4.864;2023-09-18T04:21:35;6.80;;;2.00;;
71351;SDS011;59159;51.652;4.864;2023-09-18T04:24:01;6.90;;;2.25;;
71351;SDS011;59159;51.652;4.864;2023-09-18T04:26:27;7.18;;;2.20;;
71351;SDS011;59159;51.652;4.864;2023-09-18T04:28:58;7.97;;;2.60;;
71351;SDS011;59159;51.652;4.864;2023-09-18T04:31:24;8.20;;;2.50;;
71351;SDS011;59159;51.652;4.864;2023-09-18T04:33:50;6.75;;;2.28;;
71351;SDS011;59159;51.652;4.864;2023-09-18T04:36:15;6.65;;;2.33;;
71351;SDS011;59159;51.652;4.864;2023-09-18T04:38:41;6.53;;;2.33;;
71351;SDS011;59159;51.652;4.864;2023-09-18T04:41:08;6.10;;;2.20;;
71351;SDS011;59159;51.652;4.864;2023-09-18T04:43:35;6.50;;;2.35;;
71351;SDS011;59159;51.652;4.864;2023-09-18T04:46:03;7.70;;;2.23;;
71351;SDS011;59159;51.652;4.864;2023-09-18T04:48:30;6.93;;;2.20;;
71351;SDS011;59159;51.652;4.864;2023-09-18T04:50:56;5.95;;;2.22;;
71351;SDS011;59159;51.652;4.864;2023-09-18T04:53:22;6.45;;;2.10;;
71351;SDS011;59159;51.652;4.864;2023-09-18T04:55:48;5.57;;;2.17;;
71351;SDS011;59159;51.652;4.864;2023-09-18T04:58:15;7.95;;;2.58;;
71351;SDS011;59159;51.652;4.864;2023-09-18T05:00:41;5.22;;;2.10;;
71351;SDS011;59159;51.652;4.864;2023-09-18T05:03:09;6.50;;;2.20;;
71351;SDS011;59159;51.652;4.864;2023-09-18T05:05:36;7.07;;;2.53;;
71351;SDS011;59159;51.652;4.864;2023-09-18T05:08:02;5.57;;;2.10;;
71351;SDS011;59159;51.652;4.864;2023-09-18T05:10:29;6.00;;;2.10;;
71351;SDS011;59159;51.652;4.864;2023-09-18T05:12:55;6.63;;;2.53;;
71351;SDS011;59159;51.652;4.864;2023-09-18T05:15:25;6.68;;;2.60;;
71351;SDS011;59159;51.652;4.864;2023-09-18T05:18:00;6.85;;;2.53;;
71351;SDS011;59159;51.652;4.864;2023-09-18T05:20:27;6.63;;;2.37;;
71351;SDS011;59159;51.652;4.864;2023-09-18T05:22:53;5.97;;;2.20;;
71351;SDS011;59159;51.652;4.864;2023-09-18T05:25:20;6.70;;;2.70;;
71351;SDS011;59159;51.652;4.864;2023-09-18T05:27:47;6.03;;;2.00;;
71351;SDS011;59159;51.652;4.864;2023-09-18T05:30:18;6.10;;;1.95;;
71351;SDS011;59159;51.652;4.864;2023-09-18T05:32:46;6.22;;;2.20;;
71351;SDS011;59159;51.652;4.864;2023-09-18T05:35:13;6.07;;;2.50;;
71351;SDS011;59159;51.652;4.864;2023-09-18T05:37:39;6.03;;;2.08;;
71351;SDS011;59159;51.652;4.864;2023-09-18T05:40:06;5.55;;;2.10;;
71351;SDS011;59159;51.652;4.864;2023-09-18T05:42:34;6.45;;;2.25;;
71351;SDS011;59159;51.652;4.864;2023-09-18T05:45:00;7.33;;;2.50;;
71351;SDS011;59159;51.652;4.864;2023-09-18T05:47:26;5.75;;;2.40;;
71351;SDS011;59159;51.652;4.864;2023-09-18T05:49:52;5.40;;;2.20;;
71351;SDS011;59159;51.652;4.864;2023-09-18T05:52:18;5.57;;;2.30;;
71351;SDS011;59159;51.652;4.864;2023-09-18T05:54:44;5.97;;;2.70;;
71351;SDS011;59159;51.652;4.864;2023-09-18T05:57:10;5.85;;;2.15;;
71351;SDS011;59159;51.652;4.864;2023-09-18T05:59:36;5.90;;;2.20;;
71351;SDS011;59159;51.652;4.864;2023-09-18T06:02:03;6.80;;;2.30;;
71351;SDS011;59159;51.652;4.864;2023-09-18T06:04:29;8.15;;;2.45;;
71351;SDS011;59159;51.652;4.864;2023-09-18T06:06:55;5.95;;;2.50;;
71351;SDS011;59159;51.652;4.864;2023-09-18T06:09:21;6.00;;;2.50;;
71351;SDS011;59159;51.652;4.864;2023-09-18T06:11:47;6.85;;;2.28;;
71351;SDS011;59159;51.652;4.864;2023-09-18T06:14:13;8.68;;;3.45;;
71351;SDS011;59159;51.652;4.864;2023-09-18T06:16:39;6.50;;;2.67;;
71351;SDS011;59159;51.652;4.864;2023-09-18T06:19:05;6.70;;;2.55;;
71351;SDS011;59159;51.652;4.864;2023-09-18T06:21:31;7.43;;;2.40;;
71351;SDS011;59159;51.652;4.864;2023-09-18T06:23:57;5.87;;;2.20;;
71351;SDS011;59159;51.652;4.864;2023-09-18T06:26:23;6.68;;;2.30;;
71351;SDS011;59159;51.652;4.864;2023-09-18T06:28:50;6.07;;;2.22;;
71351;SDS011;59159;51.652;4.864;2023-09-18T06:31:17;7.32;;;2.70;;
71351;SDS011;59159;51.652;4.864;2023-09-18T06:33:43;5.93;;;2.30;;
71351;SDS011;59159;51.652;4.864;2023-09-18T06:36:10;6.20;;;2.00;;
71351;SDS011;59159;51.652;4.864;2023-09-18T06:38:36;6.97;;;2.53;;
71351;SDS011;59159;51.652;4.864;2023-09-18T06:41:02;7.87;;;2.20;;
71351;SDS011;59159;51.652;4.864;2023-09-18T06:43:28;5.90;;;2.30;;
71351;SDS011;59159;51.652;4.864;2023-09-18T06:45:54;6.25;;;2.20;;
71351;SDS011;59159;51.652;4.864;2023-09-18T06:48:23;5.93;;;1.83;;
71351;SDS011;59159;51.652;4.864;2023-09-18T06:50:48;5.07;;;1.92;;
71351;SDS011;59159;51.652;4.864;2023-09-18T06:53:14;5.43;;;2.15;;
71351;SDS011;59159;51.652;4.864;2023-09-18T06:55:40;6.55;;;1.95;;
71351;SDS011;59159;51.652;4.864;2023-09-18T06:58:06;5.87;;;2.10;;
71351;SDS011;59159;51.652;4.864;2023-09-18T07:00:32;6.00;;;2.20;;
71351;SDS011;59159;51.652;4.864;2023-09-18T07:02:59;6.63;;;2.25;;
71351;SDS011;59159;51.652;4.864;2023-09-18T07:05:24;5.57;;;2.10;;
71351;SDS011;59159;51.652;4.864;2023-09-18T07:07:50;5.22;;;1.98;;
71351;SDS011;59159;51.652;4.864;2023-09-18T07:10:17;4.63;;;1.70;;
71351;SDS011;59159;51.652;4.864;2023-09-18T07:12:43;5.93;;;2.10;;
71351;SDS011;59159;51.652;4.864;2023-09-18T07:15:09;5.20;;;1.83;;
71351;SDS011;59159;51.652;4.864;2023-09-18T07:17:35;5.40;;;2.00;;
71351;SDS011;59159;51.652;4.864;2023-09-18T07:20:02;6.45;;;1.90;;
71351;SDS011;59159;51.652;4.864;2023-09-18T07:22:38;6.23;;;2.13;;
71351;SDS011;59159;51.652;4.864;2023-09-18T07:25:04;5.85;;;1.95;;
71351;SDS011;59159;51.652;4.864;2023-09-18T07:27:31;5.63;;;1.77;;
71351;SDS011;59159;51.652;4.864;2023-09-18T07:29:57;5.50;;;1.83;;
71351;SDS011;59159;51.652;4.864;2023-09-18T07:32:24;5.22;;;1.70;;
71351;SDS011;59159;51.652;4.864;2023-09-18T07:34:52;6.63;;;2.05;;
71351;SDS011;59159;51.652;4.864;2023-09-18T07:37:18;5.23;;;2.03;;
71351;SDS011;59159;51.652;4.864;2023-09-18T07:39:46;5.60;;;1.90;;
71351;SDS011;59159;51.652;4.864;2023-09-18T07:42:12;6.43;;;2.20;;
71351;SDS011;59159;51.652;4.864;2023-09-18T07:44:38;5.13;;;1.90;;
71351;SDS011;59159;51.652;4.864;2023-09-18T07:47:04;5.93;;;2.10;;
71351;SDS011;59159;51.652;4.864;2023-09-18T07:49:30;6.15;;;1.90;;
71351;SDS011;59159;51.652;4.864;2023-09-18T07:51:56;6.53;;;1.95;;
71351;SDS011;59159;51.652;4.864;2023-09-18T07:54:22;6.50;;;1.70;;
71351;SDS011;59159;51.652;4.864;2023-09-18T07:56:48;5.80;;;1.63;;
71351;SDS011;59159;51.652;4.864;2023-09-18T07:59:14;6.28;;;1.95;;
71351;SDS011;59159;51.652;4.864;2023-09-18T08:01:41;5.43;;;1.70;;
71351;SDS011;59159;51.652;4.864;2023-09-18T08:04:07;5.47;;;1.63;;
71351;SDS011;59159;51.652;4.864;2023-09-18T08:06:33;5.68;;;1.77;;
71351;SDS011;59159;51.652;4.864;2023-09-18T08:09:00;5.00;;;1.63;;
71351;SDS011;59159;51.652;4.864;2023-09-18T08:11:26;5.50;;;1.60;;
71351;SDS011;59159;51.652;4.864;2023-09-18T08:13:52;6.10;;;2.35;;
71351;SDS011;59159;51.652;4.864;2023-09-18T08:16:18;4.72;;;1.50;;
71351;SDS011;59159;51.652;4.864;2023-09-18T08:18:44;4.93;;;1.57;;
71351;SDS011;59159;51.652;4.864;2023-09-18T08:21:10;5.15;;;2.05;;
71351;SDS011;59159;51.652;4.864;2023-09-18T08:23:38;4.78;;;1.50;;
71351;SDS011;59159;51.652;4.864;2023-09-18T08:26:04;5.20;;;1.50;;
71351;SDS011;59159;51.652;4.864;2023-09-18T08:28:31;4.57;;;1.65;;
71351;SDS011;59159;51.652;4.864;2023-09-18T08:30:57;4.82;;;1.58;;
71351;SDS011;59159;51.652;4.864;2023-09-18T08:33:23;5.95;;;1.77;;
71351;SDS011;59159;51.652;4.864;2023-09-18T08:35:49;6.00;;;1.50;;
71351;SDS011;59159;51.652;4.864;2023-09-18T08:38:15;4.20;;;1.45;;
71351;SDS011;59159;51.652;4.864;2023-09-18T08:40:41;4.32;;;1.60;;
71351;SDS011;59159;51.652;4.864;2023-09-18T08:43:07;4.87;;;1.40;;
71351;SDS011;59159;51.652;4.864;2023-09-18T08:45:35;3.60;;;1.38;;
71351;SDS011;59159;51.652;4.864;2023-09-18T08:48:03;5.43;;;1.33;;
71351;SDS011;59159;51.652;4.864;2023-09-18T08:50:30;4.33;;;1.50;;
71351;SDS011;59159;51.652;4.864;2023-09-18T08:52:56;3.83;;;1.45;;
71351;SDS011;59159;51.652;4.864;2023-09-18T08:55:22;4.28;;;1.40;;
71351;SDS011;59159;51.652;4.864;2023-09-18T08:57:49;5.07;;;1.60;;
71351;SDS011;59159;51.652;4.864;2023-09-18T09:00:15;4.37;;;1.20;;
71351;SDS011;59159;51.652;4.864;2023-09-18T09:02:43;5.38;;;1.40;;
71351;SDS011;59159;51.652;4.864;2023-09-18T09:05:09;4.95;;;1.45;;
71351;SDS011;59159;51.652;4.864;2023-09-18T09:07:35;5.33;;;1.37;;
71351;SDS011;59159;51.652;4.864;2023-09-18T09:10:01;6.45;;;2.28;;
71351;SDS011;59159;51.652;4.864;2023-09-18T09:12:47;4.00;;;1.35;;
71351;SDS011;59159;51.652;4.864;2023-09-18T09:15:16;4.50;;;1.50;;
71351;SDS011;59159;51.652;4.864;2023-09-18T09:17:43;6.25;;;1.35;;
71351;SDS011;59159;51.652;4.864;2023-09-18T09:20:10;5.45;;;1.45;;
71351;SDS011;59159;51.652;4.864;2023-09-18T09:22:36;5.55;;;1.80;;
71351;SDS011;59159;51.652;4.864;2023-09-18T09:25:02;5.33;;;1.60;;
71351;SDS011;59159;51.652;4.864;2023-09-18T09:27:29;4.90;;;1.60;;
71351;SDS011;59159;51.652;4.864;2023-09-18T09:30:01;5.22;;;1.58;;
71351;SDS011;59159;51.652;4.864;2023-09-18T09:32:31;6.97;;;1.40;;
71351;SDS011;59159;51.652;4.864;2023-09-18T09:34:58;5.78;;;1.80;;
71351;SDS011;59159;51.652;4.864;2023-09-18T09:37:31;4.57;;;1.92;;
71351;SDS011;59159;51.652;4.864;2023-09-18T09:40:03;6.33;;;1.80;;
71351;SDS011;59159;51.652;4.864;2023-09-18T09:42:38;4.30;;;1.55;;
71351;SDS011;59159;51.652;4.864;2023-09-18T09:45:04;5.75;;;1.88;;
71351;SDS011;59159;51.652;4.864;2023-09-18T09:47:34;5.03;;;2.05;;
71351;SDS011;59159;51.652;4.864;2023-09-18T09:50:07;5.67;;;2.00;;
71351;SDS011;59159;51.652;4.864;2023-09-18T09:52:34;6.50;;;1.85;;
71351;SDS011;59159;51.652;4.864;2023-09-18T09:55:01;4.60;;;1.58;;
71351;SDS011;59159;51.652;4.864;2023-09-18T09:57:30;4.87;;;2.00;;
71351;SDS011;59159;51.652;4.864;2023-09-18T10:00:03;6.30;;;2.20;;
71351;SDS011;59159;51.652;4.864;2023-09-18T10:02:46;5.05;;;2.10;;
71351;SDS011;59159;51.652;4.864;2023-09-18T10:05:13;5.70;;;1.83;;
71351;SDS011;59159;51.652;4.864;2023-09-18T10:07:40;4.97;;;1.90;;
71351;SDS011;59159;51.652;4.864;2023-09-18T10:10:06;5.95;;;2.10;;
71351;SDS011;59159;51.652;4.864;2023-09-18T10:12:33;6.18;;;2.38;;
71351;SDS011;59159;51.652;4.864;2023-09-18T10:15:00;6.67;;;2.37;;
71351;SDS011;59159;51.652;4.864;2023-09-18T10:17:28;5.50;;;2.30;;
71351;SDS011;59159;51.652;4.864;2023-09-18T10:20:03;4.78;;;2.20;;
71351;SDS011;59159;51.652;4.864;2023-09-18T10:22:37;5.20;;;1.90;;
71351;SDS011;59159;51.652;4.864;2023-09-18T10:25:11;5.72;;;2.40;;
71351;SDS011;59159;51.652;4.864;2023-09-18T10:27:42;5.15;;;2.15;;
71351;SDS011;59159;51.652;4.864;2023-09-18T10:30:09;6.90;;;2.37;;
71351;SDS011;59159;51.652;4.864;2023-09-18T10:32:37;5.63;;;2.40;;
71351;SDS011;59159;51.652;4.864;2023-09-18T10:35:04;6.28;;;2.22;;
71351;SDS011;59159;51.652;4.864;2023-09-18T10:37:31;6.18;;;2.33;;
71351;SDS011;59159;51.652;4.864;2023-09-18T10:39:57;6.27;;;2.30;;
71351;SDS011;59159;51.652;4.864;2023-09-18T10:42:24;6.03;;;2.80;;
71351;SDS011;59159;51.652;4.864;2023-09-18T10:44:50;5.53;;;2.65;;
71351;SDS011;59159;51.652;4.864;2023-09-18T10:47:16;5.83;;;2.27;;
71351;SDS011;59159;51.652;4.864;2023-09-18T10:49:43;6.05;;;2.20;;
71351;SDS011;59159;51.652;4.864;2023-09-18T10:52:12;7.72;;;2.95;;
71351;SDS011;59159;51.652;4.864;2023-09-18T10:54:38;5.90;;;2.23;;
71351;SDS011;59159;51.652;4.864;2023-09-18T10:57:05;7.25;;;2.20;;
71351;SDS011;59159;51.652;4.864;2023-09-18T10:59:31;5.40;;;2.63;;
71351;SDS011;59159;51.652;4.864;2023-09-18T11:02:04;5.40;;;2.35;;
71351;SDS011;59159;51.652;4.864;2023-09-18T11:04:30;5.83;;;2.40;;
71351;SDS011;59159;51.652;4.864;2023-09-18T11:07:03;5.55;;;2.63;;
71351;SDS011;59159;51.652;4.864;2023-09-18T11:09:31;8.02;;;2.63;;
71351;SDS011;59159;51.652;4.864;2023-09-18T11:17:27;6.22;;;2.42;;
71351;SDS011;59159;51.652;4.864;2023-09-18T11:20:07;7.37;;;2.60;;
71351;SDS011;59159;51.652;4.864;2023-09-18T11:22:37;6.32;;;2.63;;
71351;SDS011;59159;51.652;4.864;2023-09-18T11:27:54;6.90;;;2.83;;
71351;SDS011;59159;51.652;4.864;2023-09-18T11:30:21;6.53;;;2.97;;
71351;SDS011;59159;51.652;4.864;2023-09-18T11:32:48;6.72;;;2.47;;
71351;SDS011;59159;51.652;4.864;2023-09-18T11:35:14;6.25;;;2.70;;
71351;SDS011;59159;51.652;4.864;2023-09-18T11:37:43;6.57;;;2.40;;
71351;SDS011;59159;51.652;4.864;2023-09-18T11:40:42;6.22;;;2.65;;
71351;SDS011;59159;51.652;4.864;2023-09-18T11:45:55;7.17;;;2.87;;
71351;SDS011;59159;51.652;4.864;2023-09-18T11:48:21;6.28;;;2.75;;
71351;SDS011;59159;51.652;4.864;2023-09-18T11:50:49;7.78;;;2.67;;
71351;SDS011;59159;51.652;4.864;2023-09-18T11:53:16;6.28;;;2.58;;
71351;SDS011;59159;51.652;4.864;2023-09-18T11:55:43;5.47;;;2.47;;
71351;SDS011;59159;51.652;4.864;2023-09-18T11:58:09;6.57;;;2.83;;
71351;SDS011;59159;51.652;4.864;2023-09-18T12:00:35;7.75;;;3.00;;
71351;SDS011;59159;51.652;4.864;2023-09-18T12:05:43;6.00;;;2.83;;
71351;SDS011;59159;51.652;4.864;2023-09-18T12:08:10;8.15;;;3.00;;
71351;SDS011;59159;51.652;4.864;2023-09-18T12:10:37;6.57;;;2.70;;
71351;SDS011;59159;51.652;4.864;2023-09-18T12:13:06;6.15;;;2.60;;
71351;SDS011;59159;51.652;4.864;2023-09-18T12:15:33;6.78;;;2.97;;
71351;SDS011;59159;51.652;4.864;2023-09-18T12:18:09;8.20;;;3.03;;
71351;SDS011;59159;51.652;4.864;2023-09-18T12:20:37;6.83;;;2.63;;
71351;SDS011;59159;51.652;4.864;2023-09-18T12:23:03;6.93;;;2.58;;
71351;SDS011;59159;51.652;4.864;2023-09-18T12:25:29;7.60;;;2.55;;
71351;SDS011;59159;51.652;4.864;2023-09-18T12:27:55;5.70;;;2.63;;
71351;SDS011;59159;51.652;4.864;2023-09-18T12:30:22;7.03;;;3.00;;
71351;SDS011;59159;51.652;4.864;2023-09-18T12:32:51;5.75;;;2.38;;
71351;SDS011;59159;51.652;4.864;2023-09-18T12:35:17;7.13;;;2.77;;
71351;SDS011;59159;51.652;4.864;2023-09-18T12:37:44;6.00;;;2.45;;
71351;SDS011;59159;51.652;4.864;2023-09-18T12:40:23;6.40;;;2.42;;
71351;SDS011;59159;51.652;4.864;2023-09-18T12:42:49;8.48;;;2.80;;
71351;SDS011;59159;51.652;4.864;2023-09-18T12:45:16;6.10;;;2.30;;
71351;SDS011;59159;51.652;4.864;2023-09-18T12:47:42;5.60;;;2.63;;
71351;SDS011;59159;51.652;4.864;2023-09-18T12:50:09;7.57;;;2.53;;
71351;SDS011;59159;51.652;4.864;2023-09-18T12:52:36;6.37;;;2.40;;
71351;SDS011;59159;51.652;4.864;2023-09-18T12:55:02;5.68;;;2.58;;
71351;SDS011;59159;51.652;4.864;2023-09-18T12:57:31;5.47;;;2.15;;
71351;SDS011;59159;51.652;4.864;2023-09-18T12:59:57;6.43;;;2.60;;
71351;SDS011;59159;51.652;4.864;2023-09-18T13:02:23;5.72;;;2.58;;
71351;SDS011;59159;51.652;4.864;2023-09-18T13:04:53;5.88;;;2.83;;
71351;SDS011;59159;51.652;4.864;2023-09-18T13:07:19;5.85;;;2.78;;
71351;SDS011;59159;51.652;4.864;2023-09-18T13:09:58;7.93;;;2.67;;
71351;SDS011;59159;51.652;4.864;2023-09-18T13:15:06;5.93;;;2.50;;
71351;SDS011;59159;51.652;4.864;2023-09-18T13:17:44;5.07;;;2.40;;
71351;SDS011;59159;51.652;4.864;2023-09-18T13:20:14;5.38;;;2.35;;
71351;SDS011;59159;51.652;4.864;2023-09-18T13:22:41;5.90;;;2.30;;
71351;SDS011;59159;51.652;4.864;2023-09-18T13:25:10;6.17;;;2.37;;
71351;SDS011;59159;51.652;4.864;2023-09-18T13:27:37;5.68;;;2.10;;
71351;SDS011;59159;51.652;4.864;2023-09-18T13:30:05;5.38;;;2.30;;
71351;SDS011;59159;51.652;4.864;2023-09-18T13:32:33;6.28;;;2.40;;
71351;SDS011;59159;51.652;4.864;2023-09-18T13:34:59;5.73;;;2.20;;
71351;SDS011;59159;51.652;4.864;2023-09-18T13:37:25;6.03;;;2.17;;
71351;SDS011;59159;51.652;4.864;2023-09-18T13:39:54;5.93;;;2.30;;
71351;SDS011;59159;51.652;4.864;2023-09-18T13:42:20;6.33;;;2.60;;
71351;SDS011;59159;51.652;4.864;2023-09-18T13:44:46;5.07;;;2.17;;
71351;SDS011;59159;51.652;4.864;2023-09-18T13:47:12;5.63;;;2.13;;
71351;SDS011;59159;51.652;4.864;2023-09-18T13:49:38;6.13;;;2.33;;
71351;SDS011;59159;51.652;4.864;2023-09-18T13:52:04;6.00;;;2.03;;
71351;SDS011;59159;51.652;4.864;2023-09-18T13:54:30;6.80;;;2.17;;
71351;SDS011;59159;51.652;4.864;2023-09-18T13:56:56;5.32;;;2.10;;
71351;SDS011;59159;51.652;4.864;2023-09-18T13:59:22;6.47;;;2.50;;
71351;SDS011;59159;51.652;4.864;2023-09-18T14:01:48;4.90;;;1.95;;
71351;SDS011;59159;51.652;4.864;2023-09-18T14:04:14;5.03;;;2.10;;
71351;SDS011;59159;51.652;4.864;2023-09-18T14:06:40;5.50;;;1.87;;
71351;SDS011;59159;51.652;4.864;2023-09-18T14:09:07;6.03;;;2.30;;
71351;SDS011;59159;51.652;4.864;2023-09-18T14:11:35;5.20;;;2.00;;
71351;SDS011;59159;51.652;4.864;2023-09-18T14:14:03;5.70;;;2.20;;
71351;SDS011;59159;51.652;4.864;2023-09-18T14:16:29;5.00;;;2.15;;
71351;SDS011;59159;51.652;4.864;2023-09-18T14:18:58;8.20;;;2.53;;
71351;SDS011;59159;51.652;4.864;2023-09-18T14:21:24;5.13;;;1.73;;
71351;SDS011;59159;51.652;4.864;2023-09-18T14:23:53;6.37;;;2.30;;
71351;SDS011;59159;51.652;4.864;2023-09-18T14:26:19;5.95;;;2.10;;
71351;SDS011;59159;51.652;4.864;2023-09-18T14:28:45;7.07;;;2.17;;
71351;SDS011;59159;51.652;4.864;2023-09-18T14:31:11;6.13;;;2.00;;
71351;SDS011;59159;51.652;4.864;2023-09-18T14:33:37;4.90;;;1.77;;
71351;SDS011;59159;51.652;4.864;2023-09-18T14:36:04;5.88;;;2.08;;
71351;SDS011;59159;51.652;4.864;2023-09-18T14:38:31;5.33;;;1.90;;
71351;SDS011;59159;51.652;4.864;2023-09-18T14:40:57;5.40;;;1.85;;
71351;SDS011;59159;51.652;4.864;2023-09-18T14:43:27;7.60;;;1.90;;
71351;SDS011;59159;51.652;4.864;2023-09-18T14:45:53;6.05;;;1.88;;
71351;SDS011;59159;51.652;4.864;2023-09-18T14:48:22;4.67;;;1.70;;
71351;SDS011;59159;51.652;4.864;2023-09-18T14:50:54;7.72;;;2.08;;
71351;SDS011;59159;51.652;4.864;2023-09-18T14:53:20;4.80;;;1.52;;
71351;SDS011;59159;51.652;4.864;2023-09-18T14:55:46;5.73;;;1.50;;
71351;SDS011;59159;51.652;4.864;2023-09-18T14:58:13;5.20;;;2.08;;
71351;SDS011;59159;51.652;4.864;2023-09-18T15:00:39;6.05;;;1.38;;
71351;SDS011;59159;51.652;4.864;2023-09-18T15:03:06;6.90;;;1.50;;
71351;SDS011;59159;51.652;4.864;2023-09-18T15:05:31;5.75;;;1.63;;
71351;SDS011;59159;51.652;4.864;2023-09-18T15:07:57;7.05;;;1.75;;